Time;durP1;ratioP1;P1;durP2;ratioP2;P2;SDS_P1;SDS_P2;PMS_P1;PMS_P2;Temp;Humidity;BMP_temperature;BMP_pressure;BME280_temperature;BME280_humidity;BME280_pressure;Samples;Min_cycle;Max_cycle;Signal;HPM_P1;HPM_P2
2022/11/15 00:00:58;;;;;;;7.20;2.67;;;;;;;8.07;95.20;97076.09;5049364;28;20150;-62
2022/11/15 00:03:44;;;;;;;6.32;2.53;;;;;;;8.12;94.52;97072.66;5044759;28;20060;-62
2022/11/15 00:06:30;;;;;;;6.13;2.47;;;;;;;8.17;93.57;97075.44;5029292;28;20452;-62
2022/11/15 00:09:15;;;;;;;8.38;2.53;;;;;;;8.19;93.64;97070.59;5046780;28;20110;-62
2022/11/15 00:12:00;;;;;;;6.05;2.20;;;;;;;8.22;93.13;97071.19;5049135;28;20099;-62
2022/11/15 00:14:45;;;;;;;6.25;2.25;;;;;;;8.18;93.44;97079.78;5044543;28;20059;-62
2022/11/15 00:17:29;;;;;;;4.00;2.00;;;;;;;8.07;94.47;97086.03;5044913;28;20413;-62
2022/11/15 00:20:15;;;;;;;4.03;2.00;;;;;;;8.11;93.66;97078.31;5045804;28;20051;-62
2022/11/15 00:23:00;;;;;;;5.32;2.30;;;;;;;8.07;93.71;97078.78;5029112;28;20061;-62
2022/11/15 00:25:45;;;;;;;5.47;2.10;;;;;;;7.91;95.05;97075.00;5029193;28;20407;-62
2022/11/15 00:28:30;;;;;;;3.83;1.85;;;;;;;7.77;95.46;97069.06;5028811;28;20548;-62
2022/11/15 00:31:15;;;;;;;4.47;2.20;;;;;;;7.66;95.82;97062.69;5041691;28;20424;-63
2022/11/15 00:34:00;;;;;;;7.50;2.22;;;;;;;7.34;97.60;97071.22;5036983;28;20052;-62
2022/11/15 00:36:44;;;;;;;5.25;2.05;;;;;;;7.07;99.19;97069.06;5028721;28;20052;-62
2022/11/15 00:39:29;;;;;;;6.03;2.17;;;;;;;6.98;100.00;97070.47;5047233;28;20047;-62
2022/11/15 00:42:14;;;;;;;4.22;2.25;;;;;;;6.78;100.00;97073.53;5048748;28;20063;-62
2022/11/15 00:44:59;;;;;;;6.95;2.00;;;;;;;6.76;100.00;97071.06;5028465;28;20060;-62
2022/11/15 00:47:46;;;;;;;6.07;2.20;;;;;;;6.92;100.00;97068.75;5043195;28;20175;-62
2022/11/15 00:50:30;;;;;;;5.13;2.28;;;;;;;6.80;100.00;97060.66;5047154;28;20063;-62
2022/11/15 00:53:16;;;;;;;4.95;2.33;;;;;;;6.77;100.00;97053.88;5028572;28;20435;-61
2022/11/15 00:56:01;;;;;;;5.28;2.47;;;;;;;6.80;100.00;97058.78;5043693;28;20052;-62
2022/11/15 00:58:46;;;;;;;3.90;2.42;;;;;;;6.78;100.00;97047.44;5048688;28;20717;-62
2022/11/15 01:01:31;;;;;;;5.05;2.42;;;;;;;6.70;100.00;97045.09;5028157;28;20180;-62
2022/11/15 01:04:16;;;;;;;5.85;2.92;;;;;;;6.55;100.00;97051.78;5028775;28;20060;-62
2022/11/15 01:07:01;;;;;;;4.20;2.55;;;;;;;6.67;100.00;97048.28;5047854;28;20118;-62
2022/11/15 01:09:46;;;;;;;6.47;2.65;;;;;;;6.78;100.00;97036.66;5042159;28;20471;-62
2022/11/15 01:12:31;;;;;;;6.15;2.30;;;;;;;6.83;100.00;97044.03;5033060;28;20419;-62
2022/11/15 01:15:17;;;;;;;6.05;2.60;;;;;;;6.76;100.00;97047.69;5036543;28;20075;-62
2022/11/15 01:18:02;;;;;;;5.80;2.75;;;;;;;6.52;100.00;97041.47;5028287;28;20060;-62
2022/11/15 01:20:47;;;;;;;6.70;2.50;;;;;;;6.24;100.00;97040.31;5033946;28;20056;-62
2022/11/15 01:23:32;;;;;;;4.90;2.63;;;;;;;5.93;100.00;97042.22;5028187;28;20183;-62
2022/11/15 01:26:18;;;;;;;4.97;2.45;;;;;;;5.85;100.00;97033.41;5028546;28;20107;-62
2022/11/15 01:29:03;;;;;;;4.88;2.35;;;;;;;5.80;100.00;97027.94;5035561;28;20060;-62
2022/11/15 01:31:48;;;;;;;7.07;2.70;;;;;;;5.84;100.00;97034.47;5042047;28;20052;-63
2022/11/15 01:34:33;;;;;;;5.13;2.55;;;;;;;5.82;100.00;97025.00;5027259;28;20478;-62
2022/11/15 01:37:17;;;;;;;5.18;2.40;;;;;;;5.82;100.00;97025.81;5032957;28;20534;-62
2022/11/15 01:40:03;;;;;;;6.22;2.55;;;;;;;5.78;100.00;97024.63;5030878;28;20479;-62
2022/11/15 01:42:48;;;;;;;7.28;2.97;;;;;;;5.80;100.00;97021.72;5027292;28;20115;-62
2022/11/15 01:45:33;;;;;;;3.95;2.17;;;;;;;5.80;100.00;97021.72;5041535;28;20056;-62
2022/11/15 01:48:18;;;;;;;4.75;2.55;;;;;;;5.78;100.00;97021.16;5038413;28;20060;-62
2022/11/15 01:51:08;;;;;;;7.20;3.03;;;;;;;5.77;100.00;97022.16;5043923;28;20526;-62
2022/11/15 01:53:58;;;;;;;6.03;2.83;;;;;;;5.85;100.00;97019.16;5047571;28;20811;-62
2022/11/15 01:56:50;;;;;;;4.38;2.25;;;;;;;5.76;100.00;97015.16;5027195;28;20072;-62
2022/11/15 01:59:39;;;;;;;7.00;2.50;;;;;;;5.62;100.00;97011.84;5032632;28;20064;-62
2022/11/15 02:02:25;;;;;;;5.03;2.38;;;;;;;5.64;100.00;97007.88;5045743;28;20155;-61
2022/11/15 02:05:11;;;;;;;5.07;2.80;;;;;;;5.50;100.00;97001.91;5037045;28;20064;-61
2022/11/15 02:07:56;;;;;;;4.82;2.63;;;;;;;5.47;100.00;97002.34;5028861;28;20428;-61
2022/11/15 02:10:41;;;;;;;5.25;2.47;;;;;;;5.55;100.00;96998.53;5026058;28;20555;-62
2022/11/15 02:13:27;;;;;;;4.22;2.35;;;;;;;5.77;100.00;97009.56;5027358;28;20056;-62
2022/11/15 02:16:52;;;;;;;6.38;2.45;;;;;;;5.94;100.00;97009.72;5043036;28;20051;-62
2022/11/15 02:20:00;;;;;;;4.90;2.28;;;;;;;6.11;100.00;97001.84;5034486;28;20240;-62
2022/11/15 02:23:06;;;;;;;5.07;2.53;;;;;;;6.32;100.00;96996.94;5026218;28;20052;-62
2022/11/15 02:26:22;;;;;;;4.40;2.50;;;;;;;6.55;100.00;96984.53;5040188;28;20083;-61
2022/11/15 02:29:14;;;;;;;5.30;2.65;;;;;;;6.75;100.00;96977.97;5046776;28;20162;-62
2022/11/15 02:32:21;;;;;;;6.18;2.60;;;;;;;6.87;100.00;96977.94;5026275;28;20154;-62
2022/11/15 02:35:20;;;;;;;5.10;2.35;;;;;;;6.99;100.00;96972.50;5032912;28;20052;-62
2022/11/15 02:38:24;;;;;;;5.13;2.40;;;;;;;7.11;100.00;96975.19;5030663;28;20057;-62
2022/11/15 02:41:15;;;;;;;5.32;2.72;;;;;;;7.18;100.00;96973.16;5043494;28;20162;-62
2022/11/15 02:44:23;;;;;;;5.57;2.80;;;;;;;7.19;100.00;96966.69;5046617;28;20407;-62
2022/11/15 02:47:13;;;;;;;6.68;2.80;;;;;;;7.20;100.00;96962.97;5026716;28;20053;-62
2022/11/15 02:50:07;;;;;;;7.13;2.50;;;;;;;7.19;100.00;96968.59;5041076;28;20056;-62
2022/11/15 02:52:52;;;;;;;6.95;3.67;;;;;;;7.15;100.00;96966.38;5044197;28;20542;-62
2022/11/15 02:55:48;;;;;;;5.57;2.28;;;;;;;7.16;100.00;96964.50;5046177;28;20055;-62
2022/11/15 02:59:09;;;;;;;6.45;2.42;;;;;;;7.23;100.00;96948.19;5045896;28;20250;-62
2022/11/15 03:02:15;;;;;;;5.78;2.90;;;;;;;7.38;99.01;96945.78;5044220;28;20474;-62
2022/11/15 03:05:21;;;;;;;5.53;2.50;;;;;;;7.48;98.09;96950.53;5045022;28;20103;-62
2022/11/15 03:08:31;;;;;;;5.25;2.22;;;;;;;7.54;97.73;96944.19;5025158;28;20073;-61
2022/11/15 03:11:22;;;;;;;4.80;1.80;;;;;;;7.57;97.29;96937.50;5032633;28;20068;-62
2022/11/15 03:14:25;;;;;;;4.95;2.40;;;;;;;7.54;97.57;96932.59;5038875;28;20068;-62
2022/11/15 03:17:25;;;;;;;4.13;1.92;;;;;;;7.44;97.92;96930.53;5025960;28;20056;-61
2022/11/15 03:20:13;;;;;;;5.90;2.30;;;;;;;7.44;98.20;96935.13;5036312;28;20531;-61
2022/11/15 03:23:08;;;;;;;6.78;2.10;;;;;;;7.42;97.79;96938.03;5025566;28;20057;-62
2022/11/15 03:25:54;;;;;;;4.93;2.03;;;;;;;7.44;97.42;96935.13;5036321;28;20440;-61
2022/11/15 03:28:53;;;;;;;3.60;1.70;;;;;;;7.52;97.04;96937.41;5049608;28;20455;-62
2022/11/15 03:31:46;;;;;;;5.22;2.28;;;;;;;7.43;98.08;96934.28;5038300;28;20051;-61
2022/11/15 03:34:34;;;;;;;7.18;2.72;;;;;;;7.38;98.23;96932.31;5052260;28;20068;-61
2022/11/15 03:37:25;;;;;;;5.88;3.05;;;;;;;7.34;98.62;96923.06;5041186;28;20048;-62
2022/11/15 03:40:10;;;;;;;5.28;2.28;;;;;;;7.35;98.50;96927.41;5031890;28;20048;-62
2022/11/15 03:43:06;;;;;;;4.13;2.10;;;;;;;7.34;98.38;96919.59;5049133;28;20571;-62
2022/11/15 03:45:59;;;;;;;4.85;2.22;;;;;;;7.34;98.52;96927.66;5051862;28;20098;-62
2022/11/15 03:48:50;;;;;;;4.10;2.35;;;;;;;7.28;98.85;96913.28;5037189;28;20056;-62
2022/11/15 03:51:35;;;;;;;3.33;2.00;;;;;;;7.24;99.38;96906.75;5046066;28;20167;-62
2022/11/15 03:54:20;;;;;;;5.80;2.03;;;;;;;7.22;99.87;96911.56;5031616;28;20060;-62
2022/11/15 03:57:05;;;;;;;4.57;1.98;;;;;;;7.14;100.00;96908.19;5032235;28;20529;-61
2022/11/15 03:59:49;;;;;;;4.43;2.00;;;;;;;7.16;100.00;96919.53;5034363;28;20079;-61
2022/11/15 04:02:34;;;;;;;4.07;2.10;;;;;;;7.05;100.00;96912.34;5051473;28;20134;-62
2022/11/15 04:05:19;;;;;;;5.22;2.15;;;;;;;7.02;100.00;96919.03;5046337;28;20048;-62
2022/11/15 04:08:04;;;;;;;6.18;2.10;;;;;;;6.98;100.00;96914.34;5032722;28;20068;-62
2022/11/15 04:10:49;;;;;;;5.22;1.88;;;;;;;7.02;100.00;96916.34;5031739;28;20096;-62
2022/11/15 04:13:34;;;;;;;3.45;1.80;;;;;;;7.23;100.00;96918.59;5040737;28;20051;-62
2022/11/15 04:16:19;;;;;;;4.53;2.10;;;;;;;7.19;100.00;96922.81;5051282;28;20543;-62
2022/11/15 04:25:12;;;;;;;3.92;2.17;;;;;;;6.78;100.00;96904.81;5031981;28;20059;-62
2022/11/15 04:27:57;;;;;;;4.15;2.00;;;;;;;6.73;100.00;96902.03;5047680;28;20103;-62
2022/11/15 04:30:42;;;;;;;5.18;1.95;;;;;;;6.82;100.00;96902.47;5052138;28;20302;-62
2022/11/15 04:33:27;;;;;;;6.30;2.30;;;;;;;6.73;100.00;96902.84;5051864;28;20322;-62
2022/11/15 04:39:16;;;;;;;5.18;2.20;;;;;;;7.06;100.00;96892.44;5041520;28;20049;-62
2022/11/15 04:42:02;;;;;;;5.13;2.33;;;;;;;7.11;100.00;96889.81;5036494;28;20707;-62
2022/11/15 04:44:46;;;;;;;4.55;2.20;;;;;;;7.13;100.00;96892.28;5048521;28;20610;-61
2022/11/15 04:47:31;;;;;;;5.47;2.08;;;;;;;7.32;98.28;96900.13;5036608;28;20128;-61
2022/11/15 04:50:17;;;;;;;6.05;2.60;;;;;;;7.49;96.88;96889.41;5029075;28;20048;-61
2022/11/15 04:53:02;;;;;;;4.97;2.28;;;;;;;7.34;97.72;96888.06;5028768;28;20154;-61
2022/11/15 04:55:47;;;;;;;5.93;2.70;;;;;;;7.09;99.39;96891.97;5031876;28;20052;-62
2022/11/15 04:58:32;;;;;;;4.90;2.80;;;;;;;7.01;100.00;96881.56;5046743;28;20191;-62
2022/11/15 05:01:17;;;;;;;7.22;2.35;;;;;;;6.92;100.00;96883.81;5027837;28;20171;-63
2022/11/15 05:04:21;;;;;;;3.97;1.80;;;;;;;6.86;100.00;96880.22;5034735;28;20051;-62
2022/11/15 05:07:06;;;;;;;5.30;2.20;;;;;;;6.80;100.00;96878.50;5047778;28;20152;-61
2022/11/15 05:09:51;;;;;;;5.05;2.50;;;;;;;6.78;100.00;96874.41;5036887;28;20134;-61
2022/11/15 05:12:36;;;;;;;4.68;2.10;;;;;;;6.74;100.00;96874.06;5028151;28;20053;-61
2022/11/15 05:15:21;;;;;;;4.47;2.35;;;;;;;6.67;100.00;96874.19;5042060;28;20190;-61
2022/11/15 05:18:06;;;;;;;4.15;2.08;;;;;;;6.70;100.00;96872.91;5039624;28;20048;-57
2022/11/15 05:20:51;;;;;;;4.50;1.98;;;;;;;6.75;100.00;96862.25;5045529;28;20225;-57
2022/11/15 05:23:36;;;;;;;5.45;2.38;;;;;;;6.76;100.00;96862.03;5035635;28;20444;-59
2022/11/15 05:26:21;;;;;;;4.80;2.30;;;;;;;6.52;100.00;96871.22;5028493;28;20120;-58
2022/11/15 05:29:09;;;;;;;5.13;2.28;;;;;;;6.61;100.00;96864.41;5041788;28;20052;-59
2022/11/15 05:31:55;;;;;;;4.68;2.25;;;;;;;6.68;100.00;96853.50;5037210;28;20464;-58
2022/11/15 05:34:40;;;;;;;4.70;1.98;;;;;;;6.75;100.00;96848.81;5027877;28;20423;-58
2022/11/15 05:37:25;;;;;;;4.72;2.28;;;;;;;6.54;100.00;96859.16;5040888;28;20044;-59
2022/11/15 05:40:09;;;;;;;4.18;2.15;;;;;;;6.61;100.00;96843.72;5047089;28;20056;-57
2022/11/15 05:42:54;;;;;;;4.57;2.10;;;;;;;6.70;100.00;96846.00;5031598;28;20080;-59
2022/11/15 05:45:40;;;;;;;6.57;2.20;;;;;;;6.47;100.00;96853.91;5027504;28;20610;-58
2022/11/15 05:48:25;;;;;;;4.28;2.50;;;;;;;6.52;100.00;96860.47;5029636;28;20052;-59
2022/11/15 05:51:13;;;;;;;5.50;2.53;;;;;;;6.77;100.00;96846.69;5031278;28;20080;-59
2022/11/15 05:54:00;;;;;;;6.60;2.80;;;;;;;6.89;100.00;96842.06;5038359;28;20048;-58
2022/11/15 05:56:45;;;;;;;4.20;2.22;;;;;;;6.97;100.00;96848.91;5046880;28;20060;-60
2022/11/15 05:59:31;;;;;;;5.85;2.78;;;;;;;7.01;100.00;96854.66;5032774;28;20084;-57
2022/11/15 06:02:16;;;;;;;5.65;2.45;;;;;;;6.97;100.00;96843.53;5027244;28;20122;-59
2022/11/15 06:05:01;;;;;;;4.20;2.17;;;;;;;7.02;100.00;96842.81;5046359;28;20060;-58
2022/11/15 06:07:46;;;;;;;4.13;2.10;;;;;;;7.22;100.00;96836.97;5046744;28;20048;-58
2022/11/15 06:10:32;;;;;;;4.50;2.22;;;;;;;7.48;100.00;96852.75;5026730;28;20543;-59
2022/11/15 06:13:17;;;;;;;5.05;2.60;;;;;;;7.67;98.60;96854.13;5046673;28;20427;-59
2022/11/15 06:16:02;;;;;;;6.22;2.10;;;;;;;7.88;96.87;96843.66;5047187;28;20052;-59
2022/11/15 06:18:47;;;;;;;6.07;1.80;;;;;;;7.92;96.47;96847.47;5031672;28;20052;-59
2022/11/15 06:21:32;;;;;;;7.85;3.13;;;;;;;7.90;96.79;96849.63;5044347;28;20146;-59
2022/11/15 06:24:17;;;;;;;6.97;3.10;;;;;;;7.86;97.01;96845.78;5026100;28;20067;-59
2022/11/15 06:27:02;;;;;;;5.75;2.28;;;;;;;7.86;96.70;96850.34;5029812;28;20076;-59
2022/11/15 06:29:48;;;;;;;3.45;1.83;;;;;;;7.86;96.88;96836.88;5046622;28;20051;-59
2022/11/15 06:32:33;;;;;;;4.90;2.20;;;;;;;7.82;97.35;96850.03;5026923;28;20060;-58
2022/11/15 06:35:18;;;;;;;3.92;2.08;;;;;;;7.76;97.91;96853.72;5035767;28;20348;-58
2022/11/15 06:38:13;;;;;;;6.10;2.10;;;;;;;7.80;97.88;96852.16;5038505;28;20048;-59
2022/11/15 06:41:03;;;;;;;3.72;2.00;;;;;;;7.75;98.35;96855.59;5044558;28;20187;-59
2022/11/15 06:43:48;;;;;;;4.45;2.10;;;;;;;7.83;97.47;96853.53;5027607;28;20658;-59
2022/11/15 06:46:33;;;;;;;5.55;2.25;;;;;;;7.87;97.41;96858.19;5035416;28;20460;-58
2022/11/15 06:49:18;;;;;;;2.67;1.83;;;;;;;7.89;97.30;96857.94;5033550;28;20048;-59
2022/11/15 06:52:03;;;;;;;5.78;2.15;;;;;;;7.93;97.07;96859.09;5040517;28;20102;-57
2022/11/15 06:54:48;;;;;;;4.40;1.60;;;;;;;8.00;96.75;96864.31;5028771;28;20574;-57
2022/11/15 06:57:33;;;;;;;3.45;1.73;;;;;;;7.96;97.25;96868.56;5040460;28;20090;-58
2022/11/15 07:00:20;;;;;;;6.28;1.70;;;;;;;8.24;95.86;96861.38;5043506;28;20060;-58
2022/11/15 07:03:05;;;;;;;3.90;1.90;;;;;;;8.49;94.05;96854.69;5038210;28;20131;-58
2022/11/15 07:05:53;;;;;;;4.95;2.13;;;;;;;8.55;94.42;96865.31;5043605;28;20076;-58
2022/11/15 07:08:38;;;;;;;17.77;9.27;;;;;;;8.63;93.26;96876.75;5035946;28;20079;-57
2022/11/15 07:11:23;;;;;;;4.25;2.03;;;;;;;8.73;92.69;96863.34;5036727;28;20044;-58
2022/11/15 07:14:08;;;;;;;6.13;2.50;;;;;;;8.76;92.98;96862.03;5036594;28;20076;-57
2022/11/15 07:16:53;;;;;;;5.05;1.90;;;;;;;8.80;91.95;96869.38;5030444;28;20060;-57
2022/11/15 07:19:37;;;;;;;5.85;2.13;;;;;;;8.89;91.71;96867.06;5035017;28;20169;-58
2022/11/15 07:22:22;;;;;;;7.15;2.08;;;;;;;8.84;92.42;96862.41;5042733;28;20191;-56
2022/11/15 07:25:08;;;;;;;37.72;22.00;;;;;;;8.85;92.84;96869.44;5043469;28;20654;-56
2022/11/15 07:27:58;;;;;;;5.95;3.80;;;;;;;8.88;93.40;96861.91;5055246;28;20085;-57
2022/11/15 07:30:43;;;;;;;9.55;3.08;;;;;;;8.91;92.99;96869.50;5043415;28;20094;-58
2022/11/15 07:33:29;;;;;;;3.83;2.10;;;;;;;8.98;92.46;96865.53;5056984;28;20060;-55
2022/11/15 07:36:14;;;;;;;27.10;15.48;;;;;;;8.96;93.28;96862.25;5044193;28;20060;-58
2022/11/15 07:38:59;;;;;;;12.10;9.70;;;;;;;8.93;93.86;96860.09;5043557;28;20119;-58
2022/11/15 07:41:44;;;;;;;8.80;5.60;;;;;;;8.93;94.74;96854.69;5038268;28;20071;-58
2022/11/15 07:44:29;;;;;;;9.38;2.95;;;;;;;8.95;94.94;96857.13;5043127;28;20558;-58
2022/11/15 07:47:14;;;;;;;5.05;2.83;;;;;;;8.93;94.97;96857.41;5039301;28;20071;-58
2022/11/15 07:50:00;;;;;;;4.75;2.97;;;;;;;9.02;94.66;96857.72;5042619;28;20068;-59
2022/11/15 07:52:45;;;;;;;7.90;3.30;;;;;;;9.10;94.49;96853.75;5043064;28;20558;-59
2022/11/15 07:55:30;;;;;;;5.90;2.72;;;;;;;9.16;94.45;96854.63;5042526;28;20055;-59
2022/11/15 07:58:14;;;;;;;7.50;2.38;;;;;;;9.17;94.25;96848.97;5044964;28;20098;-59
2022/11/15 08:01:04;;;;;;;4.88;2.15;;;;;;;9.21;95.26;96852.78;5045456;28;20056;-59
2022/11/15 08:03:49;;;;;;;10.13;3.40;;;;;;;9.22;95.43;96859.03;5046083;28;20056;-58
2022/11/15 08:06:34;;;;;;;8.15;1.90;;;;;;;9.34;93.12;96858.84;5043389;28;20052;-58
2022/11/15 08:09:19;;;;;;;9.70;2.33;;;;;;;9.44;91.97;96855.44;5039706;28;20138;-59
2022/11/15 08:12:05;;;;;;;5.78;2.58;;;;;;;9.48;92.32;96854.63;5043376;28;20083;-58
2022/11/15 08:14:50;;;;;;;6.13;2.28;;;;;;;9.65;90.34;96850.97;5038642;28;20737;-57
2022/11/15 08:17:35;;;;;;;11.52;4.47;;;;;;;9.65;91.43;96848.28;5031534;28;20056;-58
2022/11/15 08:20:20;;;;;;;11.55;6.05;;;;;;;9.66;91.15;96843.69;5044656;28;20174;-57
2022/11/15 08:23:06;;;;;;;8.55;3.25;;;;;;;9.71;91.41;96844.56;5045948;28;20094;-59
2022/11/15 08:25:50;;;;;;;5.55;2.42;;;;;;;9.91;88.46;96836.84;5047247;28;20055;-57
2022/11/15 08:28:35;;;;;;;4.03;2.08;;;;;;;9.96;89.55;96839.56;5049176;28;20048;-58
2022/11/15 08:31:20;;;;;;;5.18;2.22;;;;;;;9.97;89.31;96836.63;5047994;28;20539;-58
2022/11/15 08:34:06;;;;;;;5.35;1.95;;;;;;;10.14;87.69;96835.63;5049116;28;20551;-58
2022/11/15 08:36:50;;;;;;;8.93;2.80;;;;;;;10.25;89.02;96829.19;5048153;28;20166;-58
2022/11/15 08:39:35;;;;;;;9.93;3.85;;;;;;;10.25;87.49;96831.88;5049030;28;20060;-56
2022/11/15 08:42:21;;;;;;;10.68;4.85;;;;;;;10.31;87.36;96826.53;5047688;28;20425;-58
2022/11/15 08:45:07;;;;;;;34.92;6.28;;;;;;;10.27;86.86;96820.78;5048852;28;20071;-58
2022/11/15 08:47:52;;;;;;;5.82;1.60;;;;;;;10.56;85.49;96817.69;5041868;28;20465;-57
2022/11/15 08:50:38;;;;;;;6.15;2.20;;;;;;;10.48;86.54;96819.03;5047850;28;20528;-55
2022/11/15 08:53:23;;;;;;;17.83;2.95;;;;;;;10.43;86.49;96813.56;5048355;28;20547;-59
2022/11/15 08:56:10;;;;;;;5.97;1.92;;;;;;;10.55;85.33;96818.78;5048811;28;20607;-58
2022/11/15 08:58:56;;;;;;;13.32;2.63;;;;;;;10.70;84.14;96815.31;5042909;28;20048;-59
2022/11/15 09:01:41;;;;;;;14.52;3.22;;;;;;;10.88;83.38;96813.97;5032684;28;20111;-58
2022/11/15 09:04:26;;;;;;;4.53;1.33;;;;;;;10.88;84.09;96805.84;5050994;28;20051;-58
2022/11/15 09:07:11;;;;;;;10.32;2.92;;;;;;;10.80;85.96;96818.03;5034034;28;20258;-58
2022/11/15 09:09:57;;;;;;;6.95;2.08;;;;;;;10.91;83.69;96813.47;5045025;28;20094;-58
2022/11/15 09:12:43;;;;;;;12.20;3.38;;;;;;;10.85;84.84;96811.84;5038545;28;20064;-59
2022/11/15 09:15:28;;;;;;;13.55;2.63;;;;;;;11.03;82.74;96813.19;5028595;28;20079;-58
2022/11/15 09:18:13;;;;;;;7.72;1.67;;;;;;;11.22;81.21;96812.69;5028563;28;20052;-58
2022/11/15 09:20:59;;;;;;;6.60;1.90;;;;;;;11.26;81.38;96807.53;5045314;28;20060;-58
2022/11/15 09:23:44;;;;;;;30.17;6.07;;;;;;;11.15;84.03;96809.44;5040222;28;20060;-58
2022/11/15 09:26:30;;;;;;;90.93;11.60;;;;;;;10.97;84.07;96808.03;5044449;28;20072;-58
2022/11/15 09:29:15;;;;;;;36.20;6.18;;;;;;;11.05;84.72;96799.38;5044117;28;20063;-56
2022/11/15 09:32:00;;;;;;;46.92;8.75;;;;;;;11.06;84.30;96792.91;5043818;28;20610;-57
2022/11/15 09:34:45;;;;;;;23.77;6.10;;;;;;;11.03;84.90;96796.94;5045670;28;20522;-58
2022/11/15 09:37:32;;;;;;;6.82;3.33;;;;;;;11.11;84.24;96792.09;5045670;28;20206;-56
2022/11/15 09:40:20;;;;;;;16.02;4.05;;;;;;;11.24;82.00;96788.84;5035081;28;20095;-58
2022/11/15 09:43:49;;;;;;;6.60;1.92;;;;;;;11.45;81.13;96783.41;5047163;28;20531;-58
2022/11/15 09:47:02;;;;;;;3.80;1.70;;;;;;;11.60;80.84;96779.88;5037492;28;20087;-56
2022/11/15 09:49:45;;;;;;;5.95;1.90;;;;;;;11.60;80.14;96779.88;5039066;28;20102;-57
2022/11/15 09:52:19;;;;;;;6.13;1.70;;;;;;;11.46;81.90;96779.63;5046829;28;20107;-58
2022/11/15 09:54:49;;;;;;;5.32;1.90;;;;;;;11.60;80.05;96782.59;5047127;28;20045;-58
2022/11/15 09:57:24;;;;;;;3.53;1.40;;;;;;;11.64;79.94;96775.53;5047268;28;20130;-57
2022/11/15 10:00:05;;;;;;;4.28;2.10;;;;;;;11.62;80.11;96779.59;5046602;28;20412;-56
2022/11/15 10:02:57;;;;;;;12.90;2.90;;;;;;;11.40;80.98;96778.00;5046488;28;20132;-56
2022/11/15 10:05:25;;;;;;;134.02;16.80;;;;;;;11.30;81.77;96774.22;5047558;28;20124;-57
2022/11/15 10:08:03;;;;;;;4.80;1.80;;;;;;;11.38;81.40;96775.56;5047102;28;20071;-57
2022/11/15 10:10:42;;;;;;;3.13;1.58;;;;;;;11.22;81.90;96766.63;5046768;28;20165;-58
2022/11/15 10:13:16;;;;;;;5.15;1.85;;;;;;;11.21;82.35;96766.91;5042630;28;20137;-58
2022/11/15 10:15:45;;;;;;;3.05;1.52;;;;;;;11.30;81.50;96768.78;5026997;28;20536;-59
2022/11/15 10:18:28;;;;;;;4.10;2.10;;;;;;;11.47;81.81;96766.88;5027325;28;20088;-59
2022/11/15 10:20:59;;;;;;;4.20;1.70;;;;;;;11.46;81.60;96760.63;5026192;28;20045;-58
2022/11/15 10:23:27;;;;;;;4.05;1.60;;;;;;;11.51;80.67;96763.38;5027412;28;20046;-58
2022/11/15 10:25:57;;;;;;;7.60;2.20;;;;;;;11.41;82.38;96761.47;5026491;28;20320;-57
2022/11/15 10:28:31;;;;;;;3.00;1.40;;;;;;;11.47;82.50;96751.44;5026758;28;20045;-59
2022/11/15 10:31:04;;;;;;;3.60;1.83;;;;;;;11.47;81.67;96746.03;5026361;28;20041;-58
2022/11/15 10:33:34;;;;;;;4.15;2.10;;;;;;;11.45;82.11;96742.75;5026919;28;20052;-55
2022/11/15 10:36:25;;;;;;;5.68;1.75;;;;;;;11.42;81.91;96743.28;5026358;28;20042;-59
2022/11/15 10:38:51;;;;;;;5.32;2.40;;;;;;;11.35;82.39;96735.44;5044411;28;20116;-56
2022/11/15 10:41:26;;;;;;;5.15;1.70;;;;;;;11.36;83.41;96738.97;5045831;28;20455;-58
2022/11/15 10:44:31;;;;;;;3.50;1.60;;;;;;;11.55;81.41;96731.91;5046519;28;20125;-58
2022/11/15 10:47:04;;;;;;;5.22;2.20;;;;;;;11.65;80.90;96733.75;5046753;28;20196;-58
2022/11/15 10:49:32;;;;;;;6.75;2.20;;;;;;;11.41;82.82;96730.84;5042055;28;20583;-58
2022/11/15 10:52:04;;;;;;;3.53;1.98;;;;;;;11.32;83.42;96719.75;5038984;28;20063;-57
2022/11/15 10:54:37;;;;;;;4.30;1.92;;;;;;;11.52;81.86;96718.06;5046026;28;20139;-58
2022/11/15 10:57:21;;;;;;;16.20;9.35;;;;;;;11.53;82.34;96715.09;5053613;28;20048;-57
2022/11/15 10:59:54;;;;;;;7.70;2.47;;;;;;;11.42;84.14;96717.00;5038603;28;20153;-56
2022/11/15 11:02:29;;;;;;;5.57;2.05;;;;;;;11.46;83.62;96717.25;5047936;28;20048;-58
2022/11/15 11:04:56;;;;;;;5.22;2.55;;;;;;;11.40;84.46;96721.09;5040217;28;20151;-57
2022/11/15 11:07:31;;;;;;;5.60;2.00;;;;;;;11.54;84.33;96710.50;5040290;28;20563;-57
2022/11/15 11:10:00;;;;;;;6.95;2.10;;;;;;;11.39;84.64;96709.41;5039325;28;20073;-58
2022/11/15 11:12:31;;;;;;;4.20;2.10;;;;;;;11.56;83.88;96708.31;5041133;28;20051;-59
2022/11/15 11:15:00;;;;;;;5.65;2.20;;;;;;;11.53;83.96;96706.97;5036869;28;20049;-59
2022/11/15 11:17:42;;;;;;;4.28;1.80;;;;;;;11.55;83.76;96703.97;5043391;28;20049;-60
2022/11/15 11:20:20;;;;;;;16.42;10.77;;;;;;;11.56;83.14;96703.72;5029419;28;20120;-59
2022/11/15 11:23:17;;;;;;;6.22;2.85;;;;;;;11.64;83.90;96696.91;5047000;28;20431;-61
2022/11/15 11:26:01;;;;;;;10.50;4.88;;;;;;;11.68;84.54;96694.44;5031463;28;20127;-58
2022/11/15 11:28:46;;;;;;;5.78;1.98;;;;;;;11.77;83.77;96687.38;5043103;28;20116;-58
2022/11/15 11:31:19;;;;;;;4.45;2.10;;;;;;;11.83;82.34;96678.13;5043719;28;20044;-60
2022/11/15 11:34:09;;;;;;;4.25;2.15;;;;;;;11.84;84.01;96679.75;5043998;28;20650;-59
2022/11/15 11:36:50;;;;;;;3.70;1.70;;;;;;;11.91;83.00;96670.50;5043735;28;20123;-60
2022/11/15 11:39:32;;;;;;;4.00;1.80;;;;;;;12.11;82.51;96661.47;5036581;28;20068;-61
2022/11/15 11:41:59;;;;;;;5.50;2.03;;;;;;;12.23;81.27;96663.84;5031487;28;20471;-60
2022/11/15 11:44:25;;;;;;;3.60;1.92;;;;;;;12.25;80.94;96655.44;5057251;28;20058;-61
2022/11/15 11:46:58;;;;;;;4.72;2.10;;;;;;;12.50;79.41;96654.47;5043230;28;20120;-60
2022/11/15 11:49:46;;;;;;;3.80;1.90;;;;;;;12.59;79.91;96657.38;5045796;28;20051;-59
2022/11/15 11:52:18;;;;;;;4.70;1.50;;;;;;;12.65;79.24;96658.16;5057465;28;20120;-60
2022/11/15 11:54:55;;;;;;;5.90;1.98;;;;;;;12.68;79.15;96646.75;5066440;28;20067;-61
2022/11/15 11:57:31;;;;;;;4.82;2.20;;;;;;;12.65;79.04;96647.31;5038060;28;20117;-62
2022/11/15 12:00:17;;;;;;;5.45;2.75;;;;;;;12.73;79.73;96646.69;5045499;28;20568;-60
2022/11/15 12:03:09;;;;;;;6.90;1.80;;;;;;;12.77;78.47;96631.44;5047345;28;20128;-61
2022/11/15 12:05:39;;;;;;;;;;;;;;;12.83;78.47;96630.28;5061612;28;20045;-61
2022/11/15 12:08:35;;;;;;;4.95;2.05;;;;;;;12.83;78.86;96629.50;5039691;28;20012;-61
2022/11/15 12:11:08;;;;;;;4.95;2.15;;;;;;;12.91;78.28;96630.78;5046771;28;20048;-61
2022/11/15 12:13:36;;;;;;;6.45;2.63;;;;;;;12.87;78.35;96615.06;5063291;28;20124;-60
2022/11/15 12:16:42;;;;;;;4.22;1.58;;;;;;;12.83;79.05;96629.50;5041562;28;20056;-61
2022/11/15 12:19:08;;;;;;;4.45;2.33;;;;;;;12.65;79.64;96617.44;5017537;28;20046;-61
2022/11/15 12:21:46;;;;;;;8.32;3.00;;;;;;;12.68;79.86;96620.38;5021341;28;20141;-61
2022/11/15 12:24:20;;;;;;;14.00;5.07;;;;;;;12.72;79.60;96615.19;5039956;28;20515;-61
2022/11/15 12:27:01;;;;;;;12.65;3.15;;;;;;;12.77;79.67;96611.63;5045148;28;20793;-61
2022/11/15 12:29:36;;;;;;;4.57;2.45;;;;;;;12.82;79.72;96615.09;5041859;28;20037;-61
2022/11/15 12:32:04;;;;;;;7.80;3.88;;;;;;;12.75;79.97;96611.91;5055767;28;20115;-62
2022/11/15 12:34:40;;;;;;;4.93;2.83;;;;;;;12.70;79.45;96614.66;5050326;28;20123;-60
2022/11/15 12:37:35;;;;;;;3.72;1.60;;;;;;;12.70;78.91;96601.91;5047460;28;20599;-60
2022/11/15 12:40:23;;;;;;;5.68;2.85;;;;;;;12.81;78.46;96609.94;5054662;28;20129;-61
2022/11/15 12:43:04;;;;;;;4.22;2.72;;;;;;;12.83;79.13;96605.84;5048783;28;20158;-61
2022/11/15 12:45:33;;;;;;;15.30;8.98;;;;;;;12.82;79.06;96604.25;5044996;28;20068;-61
2022/11/15 12:48:25;;;;;;;8.18;5.45;;;;;;;12.90;78.14;96602.00;5047560;28;20052;-62
2022/11/15 12:50:53;;;;;;;49.33;9.15;;;;;;;12.96;78.61;96601.66;5045845;28;20071;-61
2022/11/15 12:53:22;;;;;;;7.03;3.08;;;;;;;13.07;78.96;96596.13;5048169;28;20075;-61
2022/11/15 12:56:04;;;;;;;8.18;4.60;;;;;;;13.19;78.80;96591.09;5048695;28;20116;-62
2022/11/15 12:58:52;;;;;;;3.72;1.60;;;;;;;13.27;77.47;96586.97;5032457;28;20061;-61
2022/11/15 13:01:34;;;;;;;4.78;2.20;;;;;;;13.25;77.28;96587.25;5038873;28;20128;-62
2022/11/15 13:04:28;;;;;;;5.00;1.40;;;;;;;13.40;76.77;96585.44;5048441;28;20084;-61
2022/11/15 13:06:57;;;;;;;8.30;2.03;;;;;;;13.45;77.00;96566.34;5047807;28;20504;-61